createdAt,value
2023-03-04T00:00:56.453Z,112.33
2023-03-04T00:03:24.439Z,251.47
2023-03-04T00:05:52.437Z,262.77
2023-03-04T00:08:20.388Z,341.80
2023-03-04T00:10:48.402Z,211.13
2023-03-04T00:13:20.397Z,219.97
2023-03-04T00:15:48.573Z,412.13
2023-03-04T00:18:16.523Z,189.43
2023-03-04T00:20:44.595Z,138.87
2023-03-04T00:23:12.660Z,145.83
2023-03-04T00:25:43.470Z,157.30
2023-03-04T00:28:11.577Z,188.27
2023-03-04T00:30:40.897Z,413.43
2023-03-04T00:33:08.837Z,275.83
2023-03-04T00:35:36.852Z,360.23
2023-03-04T00:38:04.817Z,311.80
2023-03-04T00:40:32.843Z,213.80
2023-03-04T00:43:00.780Z,225.67
2023-03-04T00:45:28.730Z,416.00
2023-03-04T00:47:58.088Z,207.13
2023-03-04T00:50:26.080Z,282.70
2023-03-04T00:52:54.092Z,224.57
2023-03-04T00:55:22.171Z,188.50
2023-03-04T00:57:50.150Z,251.97
2023-03-04T01:00:19.140Z,308.33
2023-03-04T01:02:47.125Z,159.87
2023-03-04T01:05:16.782Z,249.57
2023-03-04T01:07:45.704Z,374.00
2023-03-04T01:10:16.500Z,436.07
2023-03-04T01:12:44.848Z,389.63
2023-03-04T01:15:14.368Z,196.87
2023-03-04T01:17:42.708Z,320.33
2023-03-04T01:20:12.007Z,228.93
2023-03-04T01:22:41.378Z,163.80
2023-03-04T01:25:10.441Z,158.73
2023-03-04T01:27:38.434Z,162.73
2023-03-04T01:30:07.574Z,151.70
2023-03-04T01:32:35.630Z,174.37
2023-03-04T01:35:03.626Z,228.37
2023-03-04T01:37:31.614Z,288.53
2023-03-04T01:40:00.922Z,164.87
2023-03-04T01:42:33.603Z,267.33
2023-03-04T01:45:02.031Z,262.47
2023-03-04T01:47:32.349Z,320.23
2023-03-04T01:50:02.634Z,397.57
2023-03-04T01:52:30.659Z,152.33
2023-03-04T01:55:00.413Z,276.13
2023-03-04T01:57:28.578Z,360.27
2023-03-04T02:00:32.052Z,228.10
2023-03-04T02:03:02.079Z,207.03
2023-03-04T02:05:30.900Z,310.50
2023-03-04T02:08:01.511Z,226.67
2023-03-04T02:10:31.491Z,141.33
2023-03-04T02:13:00.626Z,341.67
2023-03-04T02:15:29.167Z,314.83
2023-03-04T02:17:57.145Z,180.40
2023-03-04T02:20:36.583Z,189.50
2023-03-04T02:23:12.939Z,422.10
2023-03-04T02:25:48.533Z,277.90
2023-03-04T02:28:18.124Z,131.50
2023-03-04T02:30:46.229Z,250.03
2023-03-04T02:33:18.618Z,208.40
2023-03-04T02:35:47.517Z,321.43
2023-03-04T02:38:15.651Z,155.23
2023-03-04T02:40:48.004Z,219.83
2023-03-04T02:43:17.398Z,322.53
2023-03-04T02:45:47.168Z,217.47
2023-03-04T02:48:16.487Z,287.73
2023-03-04T02:50:48.102Z,173.93
2023-03-04T02:53:16.428Z,197.77
2023-03-04T02:55:44.773Z,125.87
2023-03-04T02:58:13.475Z,176.50
2023-03-04T03:00:42.778Z,305.77
2023-03-04T03:03:11.055Z,157.20
2023-03-04T03:05:39.897Z,161.43
2023-03-04T03:08:08.151Z,235.50
2023-03-04T03:10:36.305Z,403.63
2023-03-04T03:13:04.376Z,180.97
2023-03-04T03:15:32.476Z,210.47
2023-03-04T03:18:01.792Z,322.57
2023-03-04T03:20:29.729Z,285.13
2023-03-04T03:22:57.674Z,190.53
2023-03-04T03:25:25.603Z,202.27
2023-03-04T03:27:53.557Z,155.80
2023-03-04T03:30:21.877Z,190.63
2023-03-04T03:32:49.860Z,126.63
2023-03-04T03:35:19.553Z,157.47
2023-03-04T03:37:49.042Z,189.23
2023-03-04T03:40:17.443Z,182.20
2023-03-04T03:42:45.396Z,221.80
2023-03-04T03:45:13.668Z,106.83
2023-03-04T03:47:41.696Z,168.37
2023-03-04T03:50:10.739Z,412.20
2023-03-04T03:52:40.155Z,121.90
2023-03-04T03:55:08.740Z,174.00
2023-03-04T03:57:36.686Z,173.73
2023-03-04T04:00:05.487Z,155.33
2023-03-04T04:02:33.530Z,182.17
2023-03-04T04:05:01.606Z,134.03
2023-03-04T04:07:29.699Z,175.73
2023-03-04T04:09:59.007Z,224.30
2023-03-04T04:12:27.120Z,211.10
2023-03-04T04:14:55.060Z,220.73
2023-03-04T04:17:23.031Z,160.77
2023-03-04T04:19:50.985Z,256.23
2023-03-04T04:22:21.636Z,102.80
2023-03-04T04:24:49.951Z,184.47
2023-03-04T04:27:19.293Z,200.73
2023-03-04T04:29:47.271Z,232.87
2023-03-04T04:32:15.303Z,227.43
2023-03-04T04:34:43.452Z,175.27
2023-03-04T04:37:11.400Z,252.87
2023-03-04T04:39:39.530Z,198.20
2023-03-04T04:42:07.464Z,272.17
2023-03-04T04:44:38.927Z,151.23
2023-03-04T04:47:07.405Z,131.73
2023-03-04T04:49:35.357Z,332.53
2023-03-04T04:52:03.307Z,228.80
2023-03-04T04:54:31.511Z,152.47
2023-03-04T04:56:59.452Z,317.50
2023-03-04T04:59:27.496Z,171.40
2023-03-04T05:01:56.826Z,162.03
2023-03-04T05:04:24.824Z,232.27
2023-03-04T05:06:52.793Z,175.70
2023-03-04T05:09:22.952Z,170.50
2023-03-04T05:11:51.109Z,163.50
2023-03-04T05:14:19.208Z,279.90
2023-03-04T05:16:47.195Z,218.07
2023-03-04T05:19:16.538Z,213.70
2023-03-04T05:21:44.524Z,92.90
2023-03-04T05:24:12.582Z,156.17
2023-03-04T05:26:40.553Z,153.00
2023-03-04T05:29:08.611Z,322.83
2023-03-04T05:31:36.636Z,196.07
2023-03-04T05:34:04.823Z,125.40
2023-03-04T05:36:34.198Z,128.30
2023-03-04T05:39:02.195Z,137.33
2023-03-04T05:41:30.162Z,204.13
2023-03-04T05:43:58.360Z,222.70
2023-03-04T05:46:26.394Z,316.37
2023-03-04T05:48:55.116Z,271.60
2023-03-04T05:51:24.060Z,92.57
2023-03-04T05:53:53.517Z,187.70
2023-03-04T05:56:21.945Z,86.77
2023-03-04T05:58:49.951Z,210.33
2023-03-04T06:01:18.892Z,410.53
2023-03-04T06:03:48.592Z,135.83
2023-03-04T06:06:16.849Z,77.03
2023-03-04T06:08:44.821Z,159.93
2023-03-04T06:11:14.155Z,529.13
2023-03-04T06:13:42.202Z,144.43
2023-03-04T06:16:10.849Z,193.90
2023-03-04T06:18:39.169Z,260.10
2023-03-04T06:21:07.600Z,139.57
2023-03-04T06:23:35.570Z,268.57
2023-03-04T06:26:03.614Z,144.20
2023-03-04T06:28:33.059Z,154.90
2023-03-04T06:31:01.131Z,183.73
2023-03-04T06:33:29.063Z,84.97
2023-03-04T06:35:58.394Z,204.87
2023-03-04T06:38:27.431Z,212.80
2023-03-04T06:40:57.444Z,293.77
2023-03-04T06:43:25.666Z,166.77
2023-03-04T06:45:55.000Z,244.33
2023-03-04T06:48:23.028Z,178.03
2023-03-04T06:50:51.031Z,156.03
2023-03-04T06:53:19.337Z,108.27
2023-03-04T06:55:48.208Z,155.30
2023-03-04T06:58:17.415Z,131.57
2023-03-04T07:00:45.906Z,97.77
2023-03-04T07:03:15.315Z,100.70
2023-03-04T07:05:44.505Z,130.73
2023-03-04T07:08:12.545Z,309.33
2023-03-04T07:10:40.544Z,287.90
2023-03-04T07:13:08.982Z,183.90
2023-03-04T07:15:38.222Z,689.13
2023-03-04T07:18:06.184Z,181.03
2023-03-04T07:20:35.546Z,208.17
2023-03-04T07:23:03.483Z,110.33
2023-03-04T07:25:31.431Z,211.10
2023-03-04T07:27:59.377Z,236.57
2023-03-04T07:30:27.358Z,218.80
2023-03-04T07:32:57.856Z,183.17
2023-03-04T07:35:25.818Z,142.90
2023-03-04T07:37:55.147Z,126.60
2023-03-04T07:40:23.579Z,250.37
2023-03-04T07:42:52.132Z,570.73
2023-03-04T07:45:20.289Z,169.80
2023-03-04T07:47:48.331Z,213.10
2023-03-04T07:50:18.030Z,279.33
2023-03-04T07:52:48.263Z,226.67
2023-03-04T07:55:17.920Z,142.93
2023-03-04T07:57:47.995Z,165.23
2023-03-04T08:00:18.088Z,155.37
2023-03-04T08:02:46.080Z,95.57
2023-03-04T08:05:14.066Z,194.67
2023-03-04T08:07:42.018Z,159.63
2023-03-04T08:10:11.405Z,108.93
2023-03-04T08:12:40.770Z,117.30
2023-03-04T08:15:09.973Z,227.43
2023-03-04T08:17:37.957Z,322.40
2023-03-04T08:20:06.666Z,159.40
2023-03-04T08:22:34.593Z,102.53
2023-03-04T08:25:02.546Z,186.37
2023-03-04T08:27:30.608Z,89.47
2023-03-04T08:29:59.955Z,187.37
2023-03-04T08:32:28.017Z,368.93
2023-03-04T08:34:56.959Z,405.87
2023-03-04T08:37:25.133Z,52.37
2023-03-04T08:39:53.167Z,52.90
2023-03-04T08:42:21.093Z,167.80
2023-03-04T08:44:49.084Z,85.73
2023-03-04T08:47:18.439Z,105.40
2023-03-04T08:49:46.526Z,130.60
2023-03-04T08:52:14.482Z,138.80
2023-03-04T08:54:42.646Z,103.13
2023-03-04T08:57:10.812Z,84.20
2023-03-04T08:59:38.937Z,1999.90
2023-03-04T09:02:07.072Z,1999.90
2023-03-04T09:04:36.665Z,1647.97
2023-03-04T09:07:04.631Z,394.90
2023-03-04T09:09:32.605Z,750.53
2023-03-04T09:12:00.597Z,118.27
2023-03-04T09:14:28.603Z,196.97
2023-03-04T09:16:56.687Z,112.10
2023-03-04T09:19:24.733Z,316.63
2023-03-04T09:21:55.343Z,344.70
2023-03-04T09:24:23.616Z,1077.73
2023-03-04T09:26:52.526Z,1849.23
2023-03-04T09:29:21.083Z,1013.00
2023-03-04T09:31:49.062Z,128.60
2023-03-04T09:34:17.432Z,1268.80
2023-03-04T09:36:45.446Z,294.17
2023-03-04T09:39:14.809Z,794.03
2023-03-04T09:41:46.879Z,592.47
2023-03-04T09:44:24.066Z,944.97
2023-03-04T09:46:54.345Z,464.70
2023-03-04T09:49:23.234Z,644.20
2023-03-04T09:52:00.221Z,455.23
2023-03-04T09:54:52.834Z,220.10
2023-03-04T09:57:29.450Z,1090.30
2023-03-04T10:00:07.868Z,1648.20
2023-03-04T10:02:45.863Z,585.73
2023-03-04T10:05:19.658Z,1833.27
2023-03-04T10:07:53.626Z,1999.90
2023-03-04T10:10:27.645Z,994.57
2023-03-04T10:12:57.925Z,1999.90
2023-03-04T10:15:32.932Z,1954.93
2023-03-04T10:18:08.814Z,1999.90
2023-03-04T10:20:49.693Z,1590.57
2023-03-04T10:23:20.614Z,1191.40
2023-03-04T10:25:53.835Z,1999.90
2023-03-04T10:28:26.561Z,1999.90
2023-03-04T10:31:00.802Z,1999.90
2023-03-04T10:33:31.581Z,1999.90
2023-03-04T10:36:03.441Z,982.07
2023-03-04T10:38:33.818Z,1999.90
2023-03-04T10:41:12.639Z,1830.77
2023-03-04T10:43:40.683Z,1999.90
2023-03-04T10:46:12.388Z,1999.90
2023-03-04T10:48:43.433Z,1531.33
2023-03-04T10:51:19.228Z,1999.90
2023-03-04T10:53:48.905Z,1389.20
2023-03-04T10:56:39.534Z,1999.90
2023-03-04T10:59:35.437Z,488.47
2023-03-04T11:02:21.679Z,1999.90
2023-03-04T11:05:05.746Z,1255.20
2023-03-04T11:07:53.525Z,1402.33
2023-03-04T11:10:23.636Z,1999.90
2023-03-04T11:12:57.182Z,938.47
2023-03-04T11:15:27.560Z,1999.90
2023-03-04T11:17:58.529Z,1999.90
2023-03-04T11:20:31.939Z,1767.10
2023-03-04T11:23:05.719Z,1999.90
2023-03-04T11:25:36.875Z,1999.90
2023-03-04T11:28:11.717Z,1999.90
2023-03-04T11:30:44.361Z,1999.90
2023-03-04T11:33:22.119Z,1999.90
2023-03-04T11:35:59.264Z,1999.90
2023-03-04T11:38:33.101Z,1999.90
2023-03-04T11:41:04.730Z,1961.17
2023-03-04T11:43:38.090Z,1999.90
2023-03-04T11:46:38.073Z,1999.90
2023-03-04T11:49:44.569Z,1999.90
2023-03-04T11:52:23.475Z,1999.90
2023-03-04T11:55:15.070Z,1999.90
2023-03-04T11:57:51.812Z,1999.90
2023-03-04T12:00:37.967Z,1999.90
2023-03-04T12:03:25.679Z,1999.90
2023-03-04T12:06:01.816Z,1999.90
2023-03-04T12:08:41.060Z,1999.90
2023-03-04T12:11:16.091Z,1999.90
2023-03-04T12:14:21.567Z,1363.07
2023-03-04T12:17:07.430Z,1902.17
2023-03-04T12:19:50.487Z,1232.87
2023-03-04T12:22:31.006Z,1999.90
2023-03-04T12:25:20.411Z,1999.90
2023-03-04T12:27:58.661Z,1999.90
2023-03-04T12:30:41.830Z,1999.90
2023-03-04T12:33:22.452Z,1999.90
2023-03-04T12:36:03.530Z,1999.90
2023-03-04T12:38:51.315Z,1620.70
2023-03-04T12:41:29.304Z,1157.47
2023-03-04T12:44:04.509Z,1999.90
2023-03-04T12:46:44.095Z,1999.90
2023-03-04T12:49:35.631Z,1999.90
2023-03-04T12:52:10.900Z,1433.10
2023-03-04T12:54:42.142Z,915.00
2023-03-04T12:57:22.037Z,1999.90
2023-03-04T12:59:59.078Z,1606.83
2023-03-04T13:02:54.039Z,1999.90
2023-03-04T13:05:37.392Z,1602.93
2023-03-04T13:08:14.236Z,1999.90
2023-03-04T13:10:42.447Z,1822.37
2023-03-04T13:13:37.273Z,1999.90
2023-03-04T13:16:07.853Z,1865.87
2023-03-04T13:18:36.897Z,1850.53
2023-03-04T13:21:22.860Z,1999.90
2023-03-04T13:23:51.098Z,1132.30
2023-03-04T13:26:23.940Z,341.83
2023-03-04T13:29:10.302Z,1999.90
2023-03-04T13:32:00.189Z,1999.90
2023-03-04T13:34:47.371Z,1999.90
2023-03-04T13:37:33.201Z,1271.90
2023-03-04T13:40:33.488Z,1686.23
2023-03-04T13:43:27.237Z,789.87
2023-03-04T13:45:55.878Z,527.13
2023-03-04T13:48:31.410Z,1732.77
2023-03-04T13:51:00.155Z,1999.90
2023-03-04T13:53:43.508Z,1999.90
2023-03-04T13:56:31.381Z,1778.20
2023-03-04T13:59:28.341Z,1702.07
2023-03-04T14:02:00.028Z,1974.73
2023-03-04T14:04:34.972Z,457.00
2023-03-04T14:07:05.444Z,1289.93
2023-03-04T14:09:36.131Z,1611.23
2023-03-04T14:12:06.350Z,941.67
2023-03-04T14:14:43.452Z,963.97
2023-03-04T14:17:20.710Z,1999.90
2023-03-04T14:19:51.255Z,1147.60
2023-03-04T14:22:24.440Z,1324.83
2023-03-04T14:25:02.015Z,1915.77
2023-03-04T14:27:33.039Z,1999.90
2023-03-04T14:30:02.471Z,1535.50
2023-03-04T14:32:31.202Z,1999.90
2023-03-04T14:35:03.373Z,1270.37
2023-03-04T14:37:40.065Z,1531.23
2023-03-04T14:40:20.388Z,676.60
2023-03-04T14:42:49.039Z,886.97
2023-03-04T14:45:18.397Z,843.40
2023-03-04T14:47:48.568Z,1978.83
2023-03-04T14:50:18.888Z,1700.50
2023-03-04T14:52:48.520Z,1999.90
2023-03-04T14:55:24.219Z,1099.83
2023-03-04T14:57:58.438Z,511.37
2023-03-04T15:00:31.698Z,1207.63
2023-03-04T15:03:01.796Z,115.90
2023-03-04T15:05:31.685Z,637.60
2023-03-04T15:08:01.517Z,1926.00
2023-03-04T15:10:33.597Z,1999.90
2023-03-04T15:13:03.952Z,1060.77
2023-03-04T15:15:35.433Z,1410.57
2023-03-04T15:18:04.689Z,902.70
2023-03-04T15:20:34.018Z,1999.90
2023-03-04T15:23:04.529Z,1077.00
2023-03-04T15:25:34.150Z,1078.17
2023-03-04T15:28:04.406Z,1204.27
2023-03-04T15:30:34.812Z,124.47
2023-03-04T15:33:02.845Z,200.63
2023-03-04T15:35:33.283Z,1274.73
2023-03-04T15:38:01.651Z,771.93
2023-03-04T15:40:33.865Z,1081.30
2023-03-04T15:43:04.658Z,407.60
2023-03-04T15:45:36.001Z,209.93
2023-03-04T15:48:07.886Z,425.43
2023-03-04T15:50:38.639Z,792.77
2023-03-04T15:53:10.384Z,1796.00
2023-03-04T15:55:39.765Z,1488.77
2023-03-04T15:58:07.902Z,116.67
2023-03-04T16:00:36.311Z,770.27
2023-03-04T16:03:04.511Z,606.30
2023-03-04T16:05:35.093Z,532.37
2023-03-04T16:08:03.124Z,1999.90
2023-03-04T16:10:31.999Z,523.60
2023-03-04T16:13:01.337Z,337.47
2023-03-04T16:15:31.373Z,487.90
2023-03-04T16:17:59.714Z,631.70
2023-03-04T16:20:30.691Z,1964.80
2023-03-04T16:23:01.683Z,1999.90
2023-03-04T16:25:31.028Z,1999.90
2023-03-04T16:28:02.707Z,695.97
2023-03-04T16:30:32.642Z,1999.90
2023-03-04T16:33:00.620Z,1429.57
2023-03-04T16:35:29.642Z,1999.90
2023-03-04T16:37:58.571Z,1999.90
2023-03-04T16:40:29.120Z,1999.90
2023-03-04T16:42:57.641Z,492.23
2023-03-04T16:45:27.838Z,1633.50
2023-03-04T16:47:57.380Z,844.40
2023-03-04T16:50:28.307Z,1787.33
2023-03-04T16:52:57.490Z,263.67
2023-03-04T16:55:27.723Z,888.73
2023-03-04T16:57:57.785Z,272.83
2023-03-04T17:00:28.621Z,475.73
2023-03-04T17:02:59.955Z,229.00
2023-03-04T17:05:30.381Z,339.23
2023-03-04T17:07:58.536Z,124.97
2023-03-04T17:10:27.004Z,611.47
2023-03-04T17:12:55.240Z,917.50
2023-03-04T17:15:23.210Z,1015.40
2023-03-04T17:17:52.240Z,1999.90
2023-03-04T17:20:21.983Z,1999.90
2023-03-04T17:22:50.418Z,1999.90
2023-03-04T17:25:18.618Z,1999.90
2023-03-04T17:27:46.577Z,364.20
2023-03-04T17:30:15.176Z,543.37
2023-03-04T17:32:43.440Z,1999.90
2023-03-04T17:35:12.518Z,1517.67
2023-03-04T17:37:41.853Z,123.27
2023-03-04T17:40:14.164Z,117.70
2023-03-04T17:42:43.086Z,605.73
2023-03-04T17:45:12.259Z,1187.33
2023-03-04T17:47:40.315Z,292.80
2023-03-04T17:50:09.874Z,311.00
2023-03-04T17:52:38.019Z,82.40
2023-03-04T17:55:08.422Z,1097.33
2023-03-04T17:57:37.505Z,98.80
2023-03-04T18:00:06.592Z,342.17
2023-03-04T18:02:34.591Z,67.53
2023-03-04T18:05:05.699Z,169.67
2023-03-04T18:07:33.724Z,58.70
2023-03-04T18:10:01.659Z,72.57
2023-03-04T18:12:31.127Z,1999.90
2023-03-04T18:15:00.147Z,361.57
2023-03-04T18:17:28.158Z,1358.97
2023-03-04T18:19:56.731Z,231.57
2023-03-04T18:22:24.736Z,442.47
2023-03-04T18:24:52.731Z,94.53
2023-03-04T18:27:20.806Z,144.00
2023-03-04T18:29:50.153Z,213.73
2023-03-04T18:32:18.204Z,51.13
2023-03-04T18:34:46.175Z,101.13
2023-03-04T18:37:14.138Z,1609.47
2023-03-04T18:39:42.106Z,1999.90
2023-03-04T18:42:10.081Z,1999.90
2023-03-04T18:44:38.019Z,1600.37
2023-03-04T18:47:08.154Z,340.57
2023-03-04T18:49:36.168Z,129.43
2023-03-04T18:52:04.255Z,1431.37
2023-03-04T18:54:32.221Z,215.37
2023-03-04T18:57:03.130Z,1009.73
2023-03-04T18:59:36.981Z,537.30
2023-03-04T19:02:11.362Z,773.40
2023-03-04T19:04:39.684Z,121.00
2023-03-04T19:07:07.658Z,563.23
2023-03-04T19:09:35.708Z,571.20
2023-03-04T19:12:05.898Z,1622.90
2023-03-04T19:14:34.138Z,1167.23
2023-03-04T19:17:02.071Z,1999.90
2023-03-04T19:19:31.483Z,105.60
2023-03-04T19:21:59.419Z,1999.90
2023-03-04T19:24:28.521Z,326.17
2023-03-04T19:26:56.458Z,1269.43
2023-03-04T19:29:24.477Z,754.50
2023-03-04T19:31:52.452Z,422.63
2023-03-04T19:34:20.457Z,218.43
2023-03-04T19:36:49.844Z,466.27
2023-03-04T19:39:18.639Z,1790.43
2023-03-04T19:41:46.782Z,967.70
2023-03-04T19:44:14.841Z,1999.90
2023-03-04T19:46:42.788Z,1321.93
2023-03-04T19:49:10.758Z,317.67
2023-03-04T19:51:38.863Z,1206.33
2023-03-04T19:54:08.944Z,267.57
2023-03-04T19:56:36.896Z,1999.90
2023-03-04T19:59:05.152Z,590.33
2023-03-04T20:01:34.578Z,234.63
2023-03-04T20:04:05.647Z,695.73
2023-03-04T20:06:35.895Z,1999.90
2023-03-04T20:09:04.147Z,217.60
2023-03-04T20:11:37.318Z,1950.73
2023-03-04T20:14:07.275Z,1999.90
2023-03-04T20:16:35.515Z,1759.20
2023-03-04T20:19:03.543Z,1634.27
2023-03-04T20:21:33.167Z,190.43
2023-03-04T20:24:01.663Z,1999.90
2023-03-04T20:26:30.445Z,1229.43
2023-03-04T20:29:00.161Z,877.47
2023-03-04T20:31:31.292Z,296.13
2023-03-04T20:34:00.726Z,312.70
2023-03-04T20:36:30.606Z,1999.90
2023-03-04T20:39:06.699Z,1971.70
2023-03-04T20:41:40.879Z,1002.93
2023-03-04T20:44:10.212Z,1688.70
2023-03-04T20:46:41.939Z,854.07
2023-03-04T20:49:12.357Z,652.73
2023-03-04T20:51:41.884Z,188.93
2023-03-04T20:54:10.638Z,1132.70
2023-03-04T20:56:39.477Z,213.60
2023-03-04T20:59:10.328Z,601.20
2023-03-04T21:01:40.102Z,780.13
2023-03-04T21:04:08.377Z,249.90
2023-03-04T21:06:38.662Z,573.57
2023-03-04T21:09:09.196Z,314.97
2023-03-04T21:11:40.458Z,404.03
2023-03-04T21:14:15.105Z,1999.90
2023-03-04T21:16:44.157Z,1999.90
2023-03-04T21:19:16.993Z,431.57
2023-03-04T21:21:45.515Z,471.77
2023-03-04T21:24:15.634Z,1999.90
2023-03-04T21:26:45.270Z,1999.90
2023-03-04T21:29:15.397Z,1792.00
2023-03-04T21:31:45.979Z,313.17
2023-03-04T21:34:17.210Z,359.40
2023-03-04T21:36:45.223Z,288.87
2023-03-04T21:39:17.984Z,1028.93
2023-03-04T21:41:46.268Z,357.00
2023-03-04T21:44:28.186Z,459.07
2023-03-04T21:47:01.943Z,1999.90
2023-03-04T21:49:30.458Z,1058.90
2023-03-04T21:51:58.397Z,498.00
2023-03-04T21:54:26.445Z,1393.20
2023-03-04T21:56:54.412Z,1991.23
2023-03-04T21:59:23.995Z,229.07
2023-03-04T22:01:52.236Z,1999.90
2023-03-04T22:04:20.302Z,1931.63
2023-03-04T22:06:48.328Z,305.83
2023-03-04T22:09:16.374Z,513.30
2023-03-04T22:11:44.336Z,682.37
2023-03-04T22:14:12.929Z,248.33
2023-03-04T22:16:54.464Z,1360.27
2023-03-04T22:19:23.633Z,893.27
2023-03-04T22:21:52.205Z,289.70
2023-03-04T22:24:20.703Z,281.00
2023-03-04T22:26:48.727Z,154.43
2023-03-04T22:29:16.723Z,199.40
2023-03-04T22:31:46.704Z,218.07
2023-03-04T22:34:16.070Z,338.47
2023-03-04T22:36:46.498Z,531.53
2023-03-04T22:39:16.950Z,1279.60
2023-03-04T22:41:44.904Z,879.70
2023-03-04T22:44:14.015Z,162.00
2023-03-04T22:46:42.709Z,1999.90
2023-03-04T22:49:14.806Z,420.73
2023-03-04T22:51:44.887Z,1196.83
2023-03-04T22:54:13.769Z,690.93
2023-03-04T22:56:42.128Z,1999.90
2023-03-04T22:59:10.147Z,784.20
2023-03-04T23:01:38.339Z,1999.90
2023-03-04T23:04:06.755Z,1999.90
2023-03-04T23:06:36.408Z,1999.90
2023-03-04T23:09:05.001Z,1282.97
2023-03-04T23:11:36.255Z,1114.20
2023-03-04T23:14:07.232Z,1999.90
2023-03-04T23:16:38.646Z,685.93
2023-03-04T23:19:07.796Z,1999.90
2023-03-04T23:21:37.865Z,1257.90
2023-03-04T23:24:08.221Z,422.40
2023-03-04T23:26:39.777Z,1999.90
2023-03-04T23:29:09.558Z,1999.90
2023-03-04T23:31:37.653Z,1937.00
2023-03-04T23:34:07.022Z,1804.60
2023-03-04T23:36:38.045Z,1999.90
2023-03-04T23:39:07.639Z,1325.47
2023-03-04T23:41:36.584Z,1449.43
2023-03-04T23:44:05.611Z,1006.70
2023-03-04T23:46:33.836Z,1999.90
2023-03-04T23:49:01.811Z,929.27
2023-03-04T23:51:30.201Z,1999.90
2023-03-04T23:53:59.877Z,949.40
2023-03-04T23:56:29.535Z,1999.90
2023-03-04T23:58:58.716Z,598.33
